Time;durP1;ratioP1;P1;durP2;ratioP2;P2;SDS_P1;SDS_P2;PMS_P1;PMS_P2;Temp;Humidity;BMP_temperature;BMP_pressure;BME280_temperature;BME280_humidity;BME280_pressure;Samples;Min_cycle;Max_cycle;Signal;HPM_P1;HPM_P2
2022/08/31 00:05:46;;;;;;;;;;;;;;;17.05;77.07;98336.34;4916661;29;19935;-88
2022/08/31 00:08:13;;;;;;;;;;;;;;;16.95;77.59;98339.28;4916210;29;19935;-87
2022/08/31 00:10:40;;;;;;;;;;;;;;;16.88;78.06;98335.00;4899541;29;19974;-88
2022/08/31 00:13:11;;;;;;;;;;;;;;;16.80;78.55;98338.44;4899917;29;19931;-87
2022/08/31 00:15:38;;;;;;;;;;;;;;;16.72;79.08;98330.94;4915908;29;20322;-87
2022/08/31 00:18:05;;;;;;;;;;;;;;;16.65;79.47;98331.31;4899291;29;20288;-87
2022/08/31 00:20:32;;;;;;;;;;;;;;;16.58;79.89;98335.56;4916304;29;20382;-87
2022/08/31 00:23:04;;;;;;;;;;;;;;;16.54;80.27;98337.28;4898668;29;19978;-86
2022/08/31 00:25:32;;;;;;;;;;;;;;;16.52;80.51;98331.31;4916071;29;19939;-86
2022/08/31 00:27:59;;;;;;;;;;;;;;;16.45;80.74;98337.94;4916220;29;19931;-87
2022/08/31 00:30:27;;;;;;;;;;;;;;;16.36;81.04;98323.41;4915177;29;20033;-87
2022/08/31 00:32:54;;;;;;;;;;;;;;;16.32;81.39;98332.47;4916088;29;19970;-87
2022/08/31 00:35:28;;;;;;;;;;;;;;;16.27;81.80;98332.56;4916207;29;19931;-87
2022/08/31 00:37:55;;;;;;;;;;;;;;;16.21;82.15;98334.56;4917645;29;19931;-87
2022/08/31 00:40:22;;;;;;;;;;;;;;;16.18;82.49;98333.25;4933589;29;19931;-87
2022/08/31 00:42:49;;;;;;;;;;;;;;;16.15;82.83;98333.03;4902149;29;19930;-86
2022/08/31 00:45:17;;;;;;;;;;;;;;;16.10;82.81;98333.91;4934640;29;19937;-86
2022/08/31 00:47:44;;;;;;;;;;;;;;;16.04;83.30;98337.81;4933708;29;19931;-88
2022/08/31 00:50:12;;;;;;;;;;;;;;;15.95;83.48;98329.53;4901872;29;19931;-88
2022/08/31 00:52:42;;;;;;;;;;;;;;;15.92;83.78;98334.75;4934848;29;19977;-87
2022/08/31 00:55:11;;;;;;;;;;;;;;;15.89;84.22;98332.63;4917694;29;19977;-87
2022/08/31 00:57:39;;;;;;;;;;;;;;;15.84;84.42;98328.06;4934703;29;20405;-87
2022/08/31 01:00:07;;;;;;;;;;;;;;;15.84;84.60;98324.53;4917781;29;19985;-87
2022/08/31 01:02:34;;;;;;;;;;;;;;;15.83;85.02;98326.47;4934638;29;19985;-87
2022/08/31 01:05:01;;;;;;;;;;;;;;;15.76;85.11;98321.38;4934265;29;20011;-87
2022/08/31 01:07:28;;;;;;;;;;;;;;;15.74;85.59;98328.22;4914303;29;19937;-87
2022/08/31 01:09:55;;;;;;;;;;;;;;;15.73;85.94;98324.69;4915713;29;19931;-87
2022/08/31 01:12:22;;;;;;;;;;;;;;;15.71;86.14;98331.53;4914188;29;19931;-87
2022/08/31 01:14:49;;;;;;;;;;;;;;;15.72;86.30;98330.41;4915854;29;19931;-86
2022/08/31 01:17:16;;;;;;;;;;;;;;;15.68;86.53;98323.94;4898741;29;19983;-87
2022/08/31 01:19:45;;;;;;;;;;;;;;;15.62;86.69;98317.75;4930321;29;19966;-88
2022/08/31 01:22:15;;;;;;;;;;;;;;;15.59;87.25;98319.13;4914360;29;19931;-87
2022/08/31 01:24:43;;;;;;;;;;;;;;;15.56;87.63;98329.81;4915284;29;19987;-87
2022/08/31 01:27:11;;;;;;;;;;;;;;;15.55;87.84;98325.47;4914484;29;19963;-88
2022/08/31 01:29:38;;;;;;;;;;;;;;;15.50;88.22;98326.34;4915521;29;19998;-87
2022/08/31 01:32:05;;;;;;;;;;;;;;;15.48;88.52;98322.31;4915206;29;20343;-87
2022/08/31 01:34:32;;;;;;;;;;;;;;;15.47;88.88;98323.41;4900337;29;19961;-86
2022/08/31 01:36:59;;;;;;;;;;;;;;;15.47;88.79;98321.50;4919410;29;19974;-87
2022/08/31 01:39:27;;;;;;;;;;;;;;;15.42;89.10;98320.75;4902496;29;20458;-85
2022/08/31 01:41:53;;;;;;;;;;;;;;;15.38;89.46;98318.63;4918079;29;19935;-87
2022/08/31 01:44:21;;;;;;;;;;;;;;;15.36;89.69;98317.28;4917627;29;19931;-86
2022/08/31 01:46:51;;;;;;;;;;;;;;;15.35;89.93;98312.97;4917501;29;19931;-85
2022/08/31 01:49:19;;;;;;;;;;;;;;;15.34;90.14;98306.72;4933017;29;19935;-86
2022/08/31 01:51:46;;;;;;;;;;;;;;;15.32;90.21;98308.94;4917763;29;19935;-85
2022/08/31 01:54:14;;;;;;;;;;;;;;;15.27;90.48;98303.56;4917516;29;19994;-85
2022/08/31 01:56:43;;;;;;;;;;;;;;;15.26;90.72;98301.13;4917684;29;19931;-86
2022/08/31 01:59:16;;;;;;;;;;;;;;;15.22;90.90;98302.78;4932628;29;19931;-88
2022/08/31 02:01:56;;;;;;;;;;;;;;;15.29;90.81;98301.38;4919637;29;19932;-90
2022/08/31 02:04:25;;;;;;;;;;;;;;;15.35;90.36;98305.63;4917417;29;19931;-89
2022/08/31 02:06:56;;;;;;;;;;;;;;;15.32;90.28;98302.69;4918236;29;20399;-89
2022/08/31 02:09:23;;;;;;;;;;;;;;;15.21;90.36;98298.47;4940089;29;19935;-85
2022/08/31 02:11:50;;;;;;;;;;;;;;;15.14;91.04;98299.66;4927047;29;20453;-90
2022/08/31 02:14:17;;;;;;;;;;;;;;;15.11;91.48;98294.78;4917982;29;19931;-90
2022/08/31 02:16:44;;;;;;;;;;;;;;;15.14;91.54;98304.25;4919008;29;19937;-88
2022/08/31 02:19:11;;;;;;;;;;;;;;;15.16;91.19;98294.72;4902035;29;19931;-89
2022/08/31 02:21:38;;;;;;;;;;;;;;;15.05;91.21;98300.59;4930253;29;19935;-88
2022/08/31 02:24:06;;;;;;;;;;;;;;;15.02;91.70;98295.75;4918892;29;20030;-88
2022/08/31 02:26:33;;;;;;;;;;;;;;;15.01;92.04;98289.47;4918267;29;19930;-89
2022/08/31 02:29:03;;;;;;;;;;;;;;;15.04;91.82;98288.06;4916886;29;19938;-89
2022/08/31 02:31:30;;;;;;;;;;;;;;;14.98;91.79;98284.63;4918421;29;20383;-89
2022/08/31 02:33:58;;;;;;;;;;;;;;;14.91;92.20;98278.72;4916866;29;19977;-83
2022/08/31 02:36:26;;;;;;;;;;;;;;;14.83;92.30;98282.09;4918372;29;19942;-89
2022/08/31 02:38:53;;;;;;;;;;;;;;;14.78;92.94;98284.88;4921244;29;19931;-87
2022/08/31 02:41:21;;;;;;;;;;;;;;;14.75;93.23;98286.25;4924734;29;19942;-88
2022/08/31 02:43:48;;;;;;;;;;;;;;;14.78;93.09;98287.59;4922915;29;19966;-88
2022/08/31 02:46:16;;;;;;;;;;;;;;;14.82;93.00;98280.50;4915527;29;19935;-84
2022/08/31 02:48:52;;;;;;;;;;;;;;;14.77;92.86;98277.84;4900761;29;20381;-87
2022/08/31 02:51:20;;;;;;;;;;;;;;;14.76;93.13;98281.63;4916407;29;20195;-87
2022/08/31 02:53:48;;;;;;;;;;;;;;;14.77;93.01;98277.84;4916946;29;19931;-87
2022/08/31 02:56:15;;;;;;;;;;;;;;;14.80;92.80;98279.97;4900856;29;19939;-86
2022/08/31 02:58:42;;;;;;;;;;;;;;;14.86;92.56;98273.34;4901208;29;20374;-87
2022/08/31 03:01:09;;;;;;;;;;;;;;;14.85;92.33;98274.47;4917595;29;20350;-88
2022/08/31 03:03:37;;;;;;;;;;;;;;;14.89;92.05;98280.94;4916696;29;19938;-86
2022/08/31 03:06:04;;;;;;;;;;;;;;;14.85;91.91;98279.91;4900758;29;19931;-87
2022/08/31 03:08:31;;;;;;;;;;;;;;;14.83;92.13;98273.94;4916541;29;19937;-87
2022/08/31 03:10:59;;;;;;;;;;;;;;;14.83;92.03;98268.50;4920590;29;20138;-86
2022/08/31 03:13:26;;;;;;;;;;;;;;;14.80;91.95;98266.38;4906149;29;19931;-87
2022/08/31 03:15:53;;;;;;;;;;;;;;;14.79;92.36;98276.44;4905851;29;19955;-86
2022/08/31 03:18:20;;;;;;;;;;;;;;;14.80;92.18;98278.06;4900741;29;20390;-86
2022/08/31 03:20:48;;;;;;;;;;;;;;;14.86;92.02;98279.63;4900803;29;20030;-87
2022/08/31 03:23:15;;;;;;;;;;;;;;;14.92;91.69;98278.44;4900547;29;19935;-86
2022/08/31 03:25:44;;;;;;;;;;;;;;;14.95;91.21;98274.34;4900530;29;19931;-86
2022/08/31 03:28:11;;;;;;;;;;;;;;;14.98;90.98;98278.38;4900071;29;20363;-87
2022/08/31 03:30:42;;;;;;;;;;;;;;;15.02;90.45;98277.53;4900090;29;19931;-87
2022/08/31 03:33:10;;;;;;;;;;;;;;;15.05;90.03;98276.94;4884574;29;19939;-87
2022/08/31 03:35:42;;;;;;;;;;;;;;;15.10;89.93;98271.44;4915922;29;19931;-86
2022/08/31 03:38:11;;;;;;;;;;;;;;;15.17;89.45;98271.09;4915884;29;19974;-86
2022/08/31 03:40:39;;;;;;;;;;;;;;;15.25;88.73;98269.63;4917246;29;19935;-86
2022/08/31 03:43:10;;;;;;;;;;;;;;;15.28;88.39;98264.38;4916805;29;19937;-85
2022/08/31 03:45:39;;;;;;;;;;;;;;;15.29;88.19;98267.91;4902084;29;19935;-84
2022/08/31 03:48:16;;;;;;;;;;;;;;;15.31;88.18;98268.44;4904715;29;19931;-85
2022/08/31 03:50:44;;;;;;;;;;;;;;;15.35;88.02;98266.75;4918570;29;20359;-86
2022/08/31 03:53:21;;;;;;;;;;;;;;;15.36;87.56;98265.63;4935816;29;20349;-87
2022/08/31 03:55:52;;;;;;;;;;;;;;;15.43;87.17;98271.53;4919340;29;19931;-86
2022/08/31 03:58:19;;;;;;;;;;;;;;;15.48;86.73;98266.00;4918230;29;20438;-85
2022/08/31 04:00:46;;;;;;;;;;;;;;;15.53;86.57;98271.38;4933942;29;19935;-87
2022/08/31 04:03:34;;;;;;;;;;;;;;;15.61;85.97;98264.47;4918204;29;19930;-87
2022/08/31 04:06:27;;;;;;;;;;;;;;;15.69;85.46;98265.69;4912578;29;19938;-87
2022/08/31 04:09:13;;;;;;;;;;;;;;;15.71;85.23;98264.34;4934813;29;20413;-85
2022/08/31 04:12:09;;;;;;;;;;;;;;;15.77;85.29;98256.91;4935234;29;20021;-89
2022/08/31 04:15:00;;;;;;;;;;;;;;;15.80;84.67;98261.75;4950195;29;19923;-85
2022/08/31 04:18:05;;;;;;;;;;;;;;;15.87;84.37;98253.19;4934652;29;19937;-88
2022/08/31 04:20:42;;;;;;;;;;;;;;;15.90;83.89;98255.31;4934875;29;19930;-87
2022/08/31 04:23:10;;;;;;;;;;;;;;;15.92;83.57;98253.13;4934330;29;20022;-87
2022/08/31 04:26:03;;;;;;;;;;;;;;;15.99;83.59;98256.28;4917657;29;20354;-87
2022/08/31 04:28:30;;;;;;;;;;;;;;;16.07;83.05;98265.66;4933945;29;19931;-87
2022/08/31 04:30:58;;;;;;;;;;;;;;;16.15;82.64;98254.88;4934778;29;19931;-87
2022/08/31 04:33:24;;;;;;;;;;;;;;;16.21;82.59;98266.50;4933630;29;19937;-87
2022/08/31 04:35:51;;;;;;;;;;;;;;;16.47;81.26;98259.47;4933673;29;20407;-88
2022/08/31 04:38:18;;;;;;;;;;;;;;;16.52;80.64;98261.31;4935066;29;19931;-86
2022/08/31 04:40:46;;;;;;;;;;;;;;;16.63;80.76;98265.44;4917423;29;20381;-89
2022/08/31 04:43:13;;;;;;;;;;;;;;;16.62;79.87;98261.09;4917206;29;19966;-87
2022/08/31 04:45:41;;;;;;;;;;;;;;;16.58;79.90;98262.00;4935589;29;19930;-87
2022/08/31 04:48:13;;;;;;;;;;;;;;;16.58;80.11;98279.16;4937081;29;19931;-88
2022/08/31 04:50:41;;;;;;;;;;;;;;;16.59;80.05;98280.00;4934056;29;19937;-88
2022/08/31 04:53:08;;;;;;;;;;;;;;;16.54;80.22;98263.75;4934420;29;20278;-87
2022/08/31 04:55:39;;;;;;;;;;;;;;;16.49;80.51;98270.09;4933340;29;19935;-87
2022/08/31 04:58:08;;;;;;;;;;;;;;;16.43;80.84;98261.22;4932732;29;19937;-85
2022/08/31 05:00:35;;;;;;;;;;;;;;;16.43;80.94;98258.50;4933160;29;19953;-85
2022/08/31 05:03:18;;;;;;;;;;;;;;;16.50;80.95;98268.97;4930352;29;19931;-86
2022/08/31 05:05:47;;;;;;;;;;;;;;;16.53;80.59;98273.00;4923970;29;19986;-87
2022/08/31 05:08:14;;;;;;;;;;;;;;;16.46;80.90;98270.69;4914615;29;19938;-87
2022/08/31 05:10:42;;;;;;;;;;;;;;;16.43;81.18;98260.38;4902693;29;19931;-87
2022/08/31 05:13:09;;;;;;;;;;;;;;;16.50;81.06;98263.53;4915790;29;19986;-87
2022/08/31 05:15:41;;;;;;;;;;;;;;;16.61;80.96;98272.28;4910927;29;20294;-87
2022/08/31 05:18:09;;;;;;;;;;;;;;;16.66;80.33;98277.66;4904283;29;19938;-86
2022/08/31 05:20:40;;;;;;;;;;;;;;;16.65;80.40;98262.44;4916593;29;19965;-86
2022/08/31 05:23:07;;;;;;;;;;;;;;;16.73;80.14;98256.25;4924579;29;19965;-86
2022/08/31 05:25:37;;;;;;;;;;;;;;;16.80;79.88;98267.59;4926658;29;19935;-84
2022/08/31 05:28:06;;;;;;;;;;;;;;;16.84;79.54;98265.91;4905818;29;19978;-87
2022/08/31 05:30:33;;;;;;;;;;;;;;;16.97;79.28;98260.75;4897932;29;19931;-87
2022/08/31 05:33:05;;;;;;;;;;;;;;;17.13;78.64;98275.66;4898307;29;19931;-87
2022/08/31 05:35:37;;;;;;;;;;;;;;;17.02;78.69;98279.72;4912595;29;19953;-89
2022/08/31 05:38:04;;;;;;;;;;;;;;;16.86;79.14;98277.31;4571815;28;9999894;-88
2022/08/31 05:40:31;;;;;;;;;;;;;;;16.76;79.71;98280.19;4932818;29;19954;-89
2022/08/31 05:42:58;;;;;;;;;;;;;;;16.62;80.21;98287.56;4933017;29;19931;-89
2022/08/31 05:45:25;;;;;;;;;;;;;;;16.54;80.78;98285.53;4904272;29;20037;-89
2022/08/31 05:47:53;;;;;;;;;;;;;;;16.49;81.30;98285.63;4904310;29;19994;-89
2022/08/31 05:50:19;;;;;;;;;;;;;;;16.38;81.74;98290.44;4895020;29;19941;-87
2022/08/31 05:52:46;;;;;;;;;;;;;;;16.27;82.19;98289.81;4911827;29;19942;-87
2022/08/31 05:55:14;;;;;;;;;;;;;;;16.22;82.59;98287.97;4911619;29;19931;-88
2022/08/31 05:57:43;;;;;;;;;;;;;;;16.18;82.98;98289.69;4912338;29;19973;-87
2022/08/31 06:00:10;;;;;;;;;;;;;;;16.13;83.17;98297.13;4913473;29;19935;-87
2022/08/31 06:02:45;;;;;;;;;;;;;;;16.13;83.00;98308.00;4929875;29;19930;-87
2022/08/31 06:05:15;;;;;;;;;;;;;;;16.06;82.72;98300.25;4910015;29;19939;-86
2022/08/31 06:07:48;;;;;;;;;;;;;;;16.09;82.29;98304.28;4908274;29;19931;-88
2022/08/31 06:10:19;;;;;;;;;;;;;;;16.15;81.13;98301.16;4900925;29;19935;-88
2022/08/31 06:12:47;;;;;;;;;;;;;;;16.08;80.84;98302.66;4905765;29;19942;-88
2022/08/31 06:15:16;;;;;;;;;;;;;;;16.07;80.86;98304.56;4919756;29;19931;-90
2022/08/31 06:17:44;;;;;;;;;;;;;;;16.07;80.20;98317.38;4883880;29;19938;-94
2022/08/31 06:20:16;;;;;;;;;;;;;;;15.92;80.63;98313.78;4877718;29;20265;-85
2022/08/31 06:22:47;;;;;;;;;;;;;;;15.82;81.28;98322.09;4881093;29;20031;-91
2022/08/31 06:25:26;;;;;;;;;;;;;;;15.78;81.45;98312.94;4899548;29;19939;-92
2022/08/31 06:27:55;;;;;;;;;;;;;;;15.75;81.46;98319.78;4912069;29;19931;-88
2022/08/31 06:30:25;;;;;;;;;;;;;;;15.62;82.49;98315.03;4915262;29;19931;-89
2022/08/31 06:32:54;;;;;;;;;;;;;;;15.45;83.60;98307.41;4903321;29;19932;-90
2022/08/31 06:35:28;;;;;;;;;;;;;;;15.43;84.69;98319.66;4884140;29;19955;-87
2022/08/31 06:38:11;;;;;;;;;;;;;;;15.46;84.93;98316.34;4916188;29;19938;-88
2022/08/31 06:40:46;;;;;;;;;;;;;;;15.53;85.38;98311.38;4916882;29;19951;-90
2022/08/31 06:43:52;;;;;;;;;;;;;;;15.59;84.97;98319.13;4898860;29;19931;-88
2022/08/31 06:46:34;;;;;;;;;;;;;;;15.71;84.22;98320.66;4897453;29;19931;-89
2022/08/31 06:49:18;;;;;;;;;;;;;;;15.90;83.60;98309.75;4879189;29;19932;-87
2022/08/31 06:51:46;;;;;;;;;;;;;;;16.21;82.52;98319.03;4890463;29;19931;-87
2022/08/31 06:54:15;;;;;;;;;;;;;;;16.43;79.85;98312.13;4879425;29;19931;-88
2022/08/31 06:57:14;;;;;;;;;;;;;;;16.84;78.88;98308.69;4884061;29;19938;-87
2022/08/31 07:00:19;;;;;;;;;;;;;;;17.30;76.28;98296.84;4871387;29;20390;-89
2022/08/31 07:03:22;;;;;;;;;;;;;;;17.74;73.24;98315.19;4896117;29;19943;-88
2022/08/31 07:05:52;;;;;;;;;;;;;;;18.03;71.66;98305.00;4882544;29;20038;-87
2022/08/31 07:08:19;;;;;;;;;;;;;;;18.08;69.01;98303.00;4873793;29;19980;-85
2022/08/31 07:10:47;;;;;;;;;;;;;;;18.16;68.90;98304.97;4876742;29;20398;-88
2022/08/31 07:13:14;;;;;;;;;;;;;;;18.33;68.69;98315.19;4891940;29;19942;-84
2022/08/31 07:15:41;;;;;;;;;;;;;;;18.13;67.50;98308.31;4908569;29;20429;-86
2022/08/31 07:18:08;;;;;;;;;;;;;;;17.81;67.52;98308.56;4915773;29;20320;-86
2022/08/31 07:20:36;;;;;;;;;;;;;;;17.74;68.61;98296.09;4927985;29;19987;-87
2022/08/31 07:23:06;;;;;;;;;;;;;;;17.73;67.68;98304.59;4932029;29;19938;-86
2022/08/31 07:25:51;;;;;;;;;;;;;;;17.97;67.65;98313.31;4915236;29;20030;-86
2022/08/31 07:28:18;;;;;;;;;;;;;;;18.28;66.91;98300.84;4905897;29;20356;-88
2022/08/31 07:30:48;;;;;;;;;;;;;;;18.47;66.05;98315.09;4931969;29;19931;-87
2022/08/31 07:33:17;;;;;;;;;;;;;;;18.19;66.24;98304.31;4915294;29;19973;-87
2022/08/31 07:35:52;;;;;;;;;;;;;;;17.97;67.04;98307.06;4901822;29;20038;-88
2022/08/31 07:44:12;;;;;;;;;;;;;;;17.63;68.81;98322.03;4915380;29;19935;-88
2022/08/31 07:46:39;;;;;;;;;;;;;;;17.58;68.82;98324.06;4899667;29;20478;-88
2022/08/31 07:49:12;;;;;;;;;;;;;;;17.48;69.20;98311.44;4917318;29;20313;-88
2022/08/31 07:51:42;;;;;;;;;;;;;;;17.45;69.27;98331.16;4919493;29;19987;-87
2022/08/31 07:54:26;;;;;;;;;;;;;;;17.63;69.02;98322.03;4918394;29;20421;-87
2022/08/31 07:57:06;;;;;;;;;;;;;;;17.69;68.88;98312.59;4915169;29;19931;-87
2022/08/31 07:59:53;;;;;;;;;;;;;;;17.71;68.99;98309.56;4916084;29;19971;-87
2022/08/31 08:02:22;;;;;;;;;;;;;;;17.67;68.98;98319.47;4899457;29;20318;-87
2022/08/31 08:04:52;;;;;;;;;;;;;;;17.59;69.45;98315.56;4900130;29;20359;-87
2022/08/31 08:07:53;;;;;;;;;;;;;;;17.48;70.21;98322.38;4933192;29;20322;-87
2022/08/31 08:10:40;;;;;;;;;;;;;;;17.25;70.75;98311.38;4913248;29;19931;-86
2022/08/31 08:13:36;;;;;;;;;;;;;;;17.27;71.14;98314.63;4930564;29;19938;-86
2022/08/31 08:16:18;;;;;;;;;;;;;;;17.10;71.81;98317.16;4914504;29;19937;-88
2022/08/31 08:19:15;;;;;;;;;;;;;;;16.82;73.49;98311.72;4908334;29;20067;-88
2022/08/31 08:21:45;;;;;;;;;;;;;;;16.73;74.08;98312.69;4912350;29;20373;-87
2022/08/31 08:24:13;;;;;;;;;;;;;;;16.76;73.97;98318.34;4908402;29;19931;-88
2022/08/31 08:27:00;;;;;;;;;;;;;;;16.93;72.91;98327.84;4897095;29;20403;-88
2022/08/31 08:29:31;;;;;;;;;;;;;;;16.76;73.93;98321.06;4899799;29;19931;-88
2022/08/31 08:32:01;;;;;;;;;;;;;;;16.62;75.30;98331.94;4891435;29;19931;-90
2022/08/31 08:34:28;;;;;;;;;;;;;;;16.74;75.44;98330.66;4905547;29;19981;-87
2022/08/31 08:37:00;;;;;;;;;;;;;;;17.05;75.04;98323.50;4911316;29;20407;-90
2022/08/31 08:39:28;;;;;;;;;;;;;;;17.29;73.38;98326.03;4910102;29;20350;-88
2022/08/31 08:42:07;;;;;;;;;;;;;;;17.43;71.93;98336.09;4923964;29;19931;-88
2022/08/31 08:44:34;;;;;;;;;;;;;;;17.54;71.45;98321.13;4892413;29;19980;-88
2022/08/31 08:47:05;;;;;;;;;;;;;;;17.74;71.16;98331.56;4892568;29;20301;-90
2022/08/31 08:49:42;;;;;;;;;;;;;;;18.04;69.67;98336.66;4887105;29;19932;-88
2022/08/31 08:52:16;;;;;;;;;;;;;;;18.10;67.70;98347.13;4912081;29;20236;-89
2022/08/31 08:54:44;;;;;;;;;;;;;;;18.15;67.96;98327.94;4910853;29;20394;-86
2022/08/31 08:57:14;;;;;;;;;;;;;;;18.38;67.06;98327.91;4921309;29;19939;-86
2022/08/31 08:59:44;;;;;;;;;;;;;;;18.67;65.12;98324.69;4910420;29;19979;-86
2022/08/31 09:02:13;;;;;;;;;;;;;;;18.97;63.95;98336.75;4900909;29;19935;-88
2022/08/31 09:04:58;;;;;;;;;;;;;;;19.07;63.50;98334.88;4895087;29;19931;-85
2022/08/31 09:07:45;;;;;;;;;;;;;;;18.75;63.43;98328.59;4895978;29;19942;-89
2022/08/31 09:10:18;;;;;;;;;;;;;;;18.42;64.26;98331.63;4913714;29;19931;-86
2022/08/31 09:12:47;;;;;;;;;;;;;;;18.18;65.03;98351.88;4897627;29;20020;-87
2022/08/31 09:15:14;;;;;;;;;;;;;;;18.22;65.07;98340.34;4930007;29;19977;-88
2022/08/31 09:17:46;;;;;;;;;;;;;;;18.34;64.90;98337.84;4914683;29;19930;-89
2022/08/31 09:20:15;;;;;;;;;;;;;;;18.42;64.90;98340.63;4913805;29;19931;-88
2022/08/31 09:22:47;;;;;;;;;;;;;;;18.62;64.83;98346.69;4910568;29;19931;-88
2022/08/31 09:25:50;;;;;;;;;;;;;;;19.09;63.08;98344.38;4891064;29;19988;-86
2022/08/31 09:28:33;;;;;;;;;;;;;;;19.28;62.24;98339.41;4896631;29;20382;-86
2022/08/31 09:30:59;;;;;;;;;;;;;;;19.20;62.80;98339.41;4898369;29;19991;-86
2022/08/31 09:33:28;;;;;;;;;;;;;;;19.11;62.01;98335.81;4908309;29;19931;-84
2022/08/31 09:36:15;;;;;;;;;;;;;;;18.98;62.42;98348.50;4896631;29;19987;-87
2022/08/31 09:38:45;;;;;;;;;;;;;;;19.13;62.07;98342.59;4889742;29;19931;-91
2022/08/31 09:41:18;;;;;;;;;;;;;;;19.31;60.59;98348.13;4910467;29;20467;-88
2022/08/31 09:43:47;;;;;;;;;;;;;;;19.40;59.57;98363.44;4907686;29;19937;-89
2022/08/31 09:46:21;;;;;;;;;;;;;;;19.66;59.23;98341.59;4906753;29;19931;-86
2022/08/31 09:48:55;;;;;;;;;;;;;;;19.61;59.21;98358.16;4908741;29;20026;-91
2022/08/31 09:51:26;;;;;;;;;;;;;;;19.32;60.52;98368.88;4901516;29;20003;-90
2022/08/31 09:56:53;;;;;;;;;;;;;;;19.54;60.38;98354.28;4918911;29;20041;-89
2022/08/31 09:59:38;;;;;;;;;;;;;;;19.48;59.66;98357.16;4916193;29;19942;-89
2022/08/31 10:02:07;;;;;;;;;;;;;;;19.20;60.42;98366.75;4921440;29;19931;-90
2022/08/31 10:04:46;;;;;;;;;;;;;;;18.96;61.39;98351.53;4917642;29;19931;-89
2022/08/31 10:07:28;;;;;;;;;;;;;;;19.12;61.40;98353.88;4908608;29;19931;-89
2022/08/31 10:09:57;;;;;;;;;;;;;;;19.16;61.52;98354.81;4923820;29;19931;-90
2022/08/31 10:12:42;;;;;;;;;;;;;;;19.10;61.71;98358.84;4931432;29;19930;-89
2022/08/31 10:15:11;;;;;;;;;;;;;;;19.04;61.76;98358.97;4921257;29;19937;-90
2022/08/31 10:17:50;;;;;;;;;;;;;;;19.01;62.25;98362.31;4919019;29;20490;-91
2022/08/31 10:20:19;;;;;;;;;;;;;;;18.95;62.41;98352.66;4903530;29;20450;-89
2022/08/31 10:22:59;;;;;;;;;;;;;;;19.14;62.24;98362.53;4888790;29;19957;-90
2022/08/31 10:25:45;;;;;;;;;;;;;;;19.42;61.36;98368.56;4902087;29;19931;-90
2022/08/31 10:28:15;;;;;;;;;;;;;;;19.83;60.11;98362.72;4904662;29;19930;-89
2022/08/31 10:30:51;;;;;;;;;;;;;;;20.81;57.26;98356.81;4922816;29;20001;-91
2022/08/31 10:33:19;;;;;;;;;;;;;;;20.89;56.12;98351.31;4940494;29;20413;-89
2022/08/31 10:35:46;;;;;;;;;;;;;;;19.93;59.13;98372.56;4917799;29;20306;-89
2022/08/31 10:38:20;;;;;;;;;;;;;;;19.21;61.68;98354.69;4913066;29;19994;-88
2022/08/31 10:40:58;;;;;;;;;;;;;;;18.88;63.16;98360.50;4919437;29;19935;-89
2022/08/31 10:43:28;;;;;;;;;;;;;;;18.60;64.34;98368.84;4939429;29;19978;-90
2022/08/31 10:45:58;;;;;;;;;;;;;;;18.11;67.60;98375.28;4918419;29;20301;-90
2022/08/31 10:48:25;;;;;;;;;;;;;;;17.42;70.34;98370.75;4924280;29;20445;-89
2022/08/31 10:51:04;;;;;;;;;;;;;;;17.02;73.19;98381.38;4936854;29;19987;-90
2022/08/31 10:53:34;;;;;;;;;;;;;;;16.59;79.11;98417.00;4919200;29;19935;-90
2022/08/31 10:56:38;;;;;;;;;;;;;;;15.77;84.50;98403.78;4907049;29;19931;-90
2022/08/31 10:59:29;;;;;;;;;;;;;;;15.42;89.80;98410.47;4915559;29;20021;-90
2022/08/31 11:02:00;;;;;;;;;;;;;;;15.23;91.83;98424.03;4916552;29;19931;-90
2022/08/31 11:04:40;;;;;;;;;;;;;;;15.20;92.82;98416.47;4900670;29;19932;-90
2022/08/31 11:07:11;;;;;;;;;;;;;;;15.54;92.94;98417.13;4919923;29;19935;-89
2022/08/31 11:09:41;;;;;;;;;;;;;;;16.06;91.42;98411.03;4935289;29;19985;-90
2022/08/31 11:12:14;;;;;;;;;;;;;;;16.21;90.16;98410.81;4919013;29;19946;-89
2022/08/31 11:14:48;;;;;;;;;;;;;;;16.11;88.90;98410.94;4919417;29;19935;-89
2022/08/31 11:17:28;;;;;;;;;;;;;;;16.01;88.83;98418.16;4913556;29;20293;-89
2022/08/31 11:20:02;;;;;;;;;;;;;;;15.64;89.25;98405.28;4925295;29;20469;-88
2022/08/31 11:22:40;;;;;;;;;;;;;;;15.55;90.84;98413.31;4917825;29;20043;-88
2022/08/31 11:25:07;;;;;;;;;;;;;;;15.67;90.89;98417.50;4919161;29;20033;-88
2022/08/31 11:27:35;;;;;;;;;;;;;;;15.56;88.37;98400.50;4933603;29;19935;-88
2022/08/31 11:30:06;;;;;;;;;;;;;;;15.57;88.52;98393.97;4908136;29;19935;-88
2022/08/31 11:32:35;;;;;;;;;;;;;;;15.58;87.02;98406.47;4910765;29;19931;-88
2022/08/31 11:35:09;;;;;;;;;;;;;;;15.56;86.41;98409.47;4935071;29;20022;-91
2022/08/31 11:38:06;;;;;;;;;;;;;;;15.46;85.16;98414.25;4933886;29;19937;-89
2022/08/31 11:40:42;;;;;;;;;;;;;;;15.25;84.54;98419.13;4893421;29;20465;-89
2022/08/31 11:43:14;;;;;;;;;;;;;;;15.17;84.83;98418.66;4918630;29;19969;-89
2022/08/31 11:45:41;;;;;;;;;;;;;;;15.28;84.91;98411.19;4933532;29;19934;-91
2022/08/31 11:48:28;;;;;;;;;;;;;;;15.38;84.48;98421.13;4921550;29;19931;-90
2022/08/31 11:51:00;;;;;;;;;;;;;;;15.44;84.77;98419.97;4935600;29;19958;-90
2022/08/31 11:53:27;;;;;;;;;;;;;;;15.35;84.96;98413.56;4918125;29;19934;-87
2022/08/31 11:55:55;;;;;;;;;;;;;;;15.26;85.75;98413.38;4931005;29;19976;-87
2022/08/31 11:58:31;;;;;;;;;;;;;;;15.26;86.42;98413.38;4932628;29;19931;-89
2022/08/31 12:01:08;;;;;;;;;;;;;;;15.48;85.72;98422.91;4909664;29;20354;-88
2022/08/31 12:03:35;;;;;;;;;;;;;;;15.69;85.32;98413.41;4927729;29;20456;-89
2022/08/31 12:06:09;;;;;;;;;;;;;;;15.95;83.80;98403.00;4933221;29;19931;-87
2022/08/31 12:08:51;;;;;;;;;;;;;;;16.42;81.90;98414.81;4935553;29;19967;-90
2022/08/31 12:11:39;;;;;;;;;;;;;;;16.95;78.05;98418.31;4920531;29;19931;-90
2022/08/31 12:14:06;;;;;;;;;;;;;;;17.03;75.17;98412.97;4903261;29;19930;-89
2022/08/31 12:16:39;;;;;;;;;;;;;;;17.26;74.79;98413.88;4917940;29;20417;-89
2022/08/31 12:25:03;;;;;;;;;;;;;;;17.70;62.97;98426.09;4920805;29;19982;-89
2022/08/31 12:27:33;;;;;;;;;;;;;;;17.88;60.16;98393.56;4934149;29;19951;-90
2022/08/31 12:30:11;;;;;;;;;;;;;;;20.61;52.85;98422.22;4935015;29;20025;-90
2022/08/31 12:32:38;;;;;;;;;;;;;;;20.48;51.20;98417.66;4934901;29;19953;-90
2022/08/31 12:35:11;;;;;;;;;;;;;;;21.84;46.60;98421.41;4919562;29;20477;-88
2022/08/31 12:37:38;;;;;;;;;;;;;;;21.58;47.41;98424.31;4944861;29;19966;-90
2022/08/31 12:40:09;;;;;;;;;;;;;;;23.26;43.73;98418.69;4921019;29;20468;-88
2022/08/31 12:42:46;;;;;;;;;;;;;;;21.08;47.01;98444.19;4935322;29;19962;-90
2022/08/31 12:45:14;;;;;;;;;;;;;;;19.41;51.08;98427.97;4918346;29;19930;-89
2022/08/31 12:47:58;;;;;;;;;;;;;;;18.90;52.26;98429.34;4902044;29;20383;-90
2022/08/31 12:50:31;;;;;;;;;;;;;;;18.59;52.61;98432.03;4902636;29;19989;-91
2022/08/31 12:53:01;;;;;;;;;;;;;;;18.26;53.87;98437.72;4934871;29;19955;-91
2022/08/31 12:55:36;;;;;;;;;;;;;;;18.27;52.62;98419.41;4933278;29;19931;-89
2022/08/31 12:58:22;;;;;;;;;;;;;;;18.44;51.63;98435.94;4917706;29;19969;-90
2022/08/31 13:00:49;;;;;;;;;;;;;;;20.58;47.45;98441.22;4934828;29;19953;-90
2022/08/31 13:03:16;;;;;;;;;;;;;;;22.41;42.65;98431.03;4934554;29;20037;-90
2022/08/31 13:06:23;;;;;;;;;;;;;;;23.21;39.59;98421.66;4934591;29;19939;-90
2022/08/31 13:08:52;;;;;;;;;;;;;;;24.24;38.64;98415.06;4856726;29;19932;-91
2022/08/31 13:11:22;;;;;;;;;;;;;;;25.18;35.92;98421.22;4857361;29;20403;-91
2022/08/31 13:13:50;;;;;;;;;;;;;;;24.09;37.19;98432.34;4857431;29;19932;-91
2022/08/31 13:16:17;;;;;;;;;;;;;;;23.57;38.57;98428.31;4857198;29;19933;-90
2022/08/31 13:18:45;;;;;;;;;;;;;;;22.85;39.58;98423.16;4856780;29;20114;-89
2022/08/31 13:21:18;;;;;;;;;;;;;;;22.53;39.97;98423.97;4857194;29;19932;-90
2022/08/31 13:23:46;;;;;;;;;;;;;;;22.47;40.28;98437.94;4856911;29;19932;-92
2022/08/31 13:26:22;;;;;;;;;;;;;;;21.86;41.92;98423.81;4857037;29;19939;-89
2022/08/31 13:28:51;;;;;;;;;;;;;;;23.32;40.01;98450.38;4857311;29;19932;-90
2022/08/31 13:31:23;;;;;;;;;;;;;;;22.71;39.89;98448.25;4869987;29;19916;-89
2022/08/31 13:33:50;;;;;;;;;;;;;;;22.10;41.36;98438.84;4870421;29;20357;-90